Time;durP1;ratioP1;P1;durP2;ratioP2;P2;SDS_P1;SDS_P2;PMS_P1;PMS_P2;Temp;Humidity;BMP_temperature;BMP_pressure;BME280_temperature;BME280_humidity;BME280_pressure;Samples;Min_cycle;Max_cycle;Signal;HPM_P1;HPM_P2
2023/08/08 00:00:26;;;;;;;4.65;2.70;;;;;;;12.85;100.00;101312.72;5044348;28;20295;-75
2023/08/08 00:02:51;;;;;;;4.22;3.17;;;;;;;12.81;100.00;101314.69;5028966;28;20092;-74
2023/08/08 00:05:17;;;;;;;6.18;3.28;;;;;;;12.84;100.00;101309.19;5036800;28;20121;-74
2023/08/08 00:07:42;;;;;;;7.07;3.47;;;;;;;12.78;100.00;101300.63;5022789;28;20056;-74
2023/08/08 00:10:08;;;;;;;3.75;3.08;;;;;;;12.79;100.00;101300.56;5042309;28;20021;-74
2023/08/08 00:12:33;;;;;;;5.53;3.08;;;;;;;12.71;100.00;101295.59;5048552;28;20507;-74
2023/08/08 00:14:59;;;;;;;3.67;2.75;;;;;;;12.71;100.00;101305.44;5040309;28;20396;-73
2023/08/08 00:17:24;;;;;;;4.88;3.10;;;;;;;12.69;100.00;101304.63;5045596;28;20505;-74
2023/08/08 00:19:50;;;;;;;3.88;3.28;;;;;;;12.61;100.00;101304.16;5053748;28;20120;-74
2023/08/08 00:22:15;;;;;;;5.32;3.35;;;;;;;12.66;100.00;101307.44;5054536;28;20024;-74
2023/08/08 00:24:40;;;;;;;5.30;3.10;;;;;;;12.65;100.00;101306.59;5031209;28;20098;-74
2023/08/08 00:27:06;;;;;;;5.53;3.30;;;;;;;12.71;100.00;101313.44;5042546;28;20025;-74
2023/08/08 00:29:31;;;;;;;5.70;3.70;;;;;;;12.71;100.00;101306.28;5036576;28;20035;-74
2023/08/08 00:31:56;;;;;;;3.65;3.15;;;;;;;12.80;100.00;101307.59;5036893;28;20080;-73
2023/08/08 00:34:22;;;;;;;4.18;3.15;;;;;;;12.88;100.00;101315.22;5046942;28;20094;-74
2023/08/08 00:36:47;;;;;;;5.68;3.20;;;;;;;12.92;100.00;101308.78;5043956;28;20149;-73
2023/08/08 00:39:12;;;;;;;5.95;3.30;;;;;;;13.02;100.00;101309.13;5046136;28;20029;-74
2023/08/08 00:41:38;;;;;;;6.50;3.53;;;;;;;13.03;100.00;101303.69;5057472;28;20033;-74
2023/08/08 00:44:03;;;;;;;5.43;3.38;;;;;;;13.05;100.00;101299.16;5041000;28;20133;-74
2023/08/08 00:46:29;;;;;;;4.63;3.25;;;;;;;13.04;100.00;101299.22;5039313;28;20479;-73
2023/08/08 00:48:54;;;;;;;4.88;3.20;;;;;;;13.07;100.00;101285.69;5047949;28;20044;-74
2023/08/08 00:51:21;;;;;;;5.07;3.60;;;;;;;13.08;100.00;101290.09;5057431;28;20417;-74
2023/08/08 00:53:47;;;;;;;4.97;3.00;;;;;;;13.09;100.00;101290.03;5034444;28;20166;-74
2023/08/08 00:56:14;;;;;;;4.78;3.30;;;;;;;13.11;100.00;101289.94;5053486;28;20062;-74
2023/08/08 00:58:40;;;;;;;5.18;3.17;;;;;;;13.15;100.00;101294.16;5039196;28;20065;-74
2023/08/08 01:01:06;;;;;;;4.57;3.40;;;;;;;13.18;100.00;101280.63;5036012;28;20028;-74
2023/08/08 01:03:31;;;;;;;6.95;3.50;;;;;;;13.24;100.00;101293.69;5040976;28;20357;-74
2023/08/08 01:06:08;;;;;;;7.75;3.30;;;;;;;13.21;100.00;101281.34;5051753;28;20459;-74
2023/08/08 01:08:42;;;;;;;6.80;3.45;;;;;;;13.24;100.00;101288.34;5037532;28;20064;-74
2023/08/08 01:11:08;;;;;;;;;;;;;;;13.29;100.00;101288.09;5046095;28;20021;-75
2023/08/08 01:13:35;;;;;;;6.53;3.55;;;;;;;13.19;100.00;101285.03;5024827;28;19925;-74
2023/08/08 01:16:03;;;;;;;3.60;2.90;;;;;;;13.20;100.00;101289.41;5044988;28;20045;-75
2023/08/08 01:18:32;;;;;;;5.90;3.70;;;;;;;13.19;100.00;101279.69;5042594;28;20040;-74
2023/08/08 01:20:58;;;;;;;6.43;3.60;;;;;;;13.22;100.00;101290.22;5046891;28;20027;-74
2023/08/08 01:23:50;;;;;;;4.50;3.55;;;;;;;13.29;100.00;101286.28;5042764;28;20164;-74
2023/08/08 01:26:16;;;;;;;7.93;3.53;;;;;;;13.25;100.00;101279.41;5034000;28;20068;-74
2023/08/08 01:28:43;;;;;;;8.45;3.70;;;;;;;13.24;100.00;101276.78;5053342;28;20029;-74
2023/08/08 01:31:08;;;;;;;8.05;3.50;;;;;;;13.28;100.00;101286.38;5061244;28;20107;-74
2023/08/08 01:33:33;;;;;;;4.93;3.50;;;;;;;13.28;100.00;101278.34;5047559;28;20268;-74
2023/08/08 01:36:09;;;;;;;5.72;3.75;;;;;;;13.27;100.00;101281.97;5044837;28;20068;-74
2023/08/08 01:38:40;;;;;;;5.90;3.22;;;;;;;13.26;100.00;101285.59;5036645;28;20063;-75
2023/08/08 01:41:07;;;;;;;6.60;3.38;;;;;;;13.22;100.00;101287.53;5045780;28;20082;-74
2023/08/08 01:43:33;;;;;;;7.10;3.47;;;;;;;13.21;100.00;101280.47;5043484;28;20060;-74
2023/08/08 01:46:03;;;;;;;6.75;3.58;;;;;;;13.14;100.00;101281.75;5032160;28;20045;-74
2023/08/08 01:48:29;;;;;;;7.07;3.13;;;;;;;13.05;100.00;101282.25;5051640;28;20063;-74
2023/08/08 01:50:55;;;;;;;8.18;3.70;;;;;;;13.08;100.00;101280.25;5051458;28;20060;-74
2023/08/08 01:53:20;;;;;;;5.20;3.28;;;;;;;13.10;100.00;101280.19;5050565;28;20040;-74
2023/08/08 01:55:46;;;;;;;7.75;3.85;;;;;;;13.12;100.00;101275.63;5052354;28;20036;-75
2023/08/08 01:58:11;;;;;;;8.13;4.20;;;;;;;13.10;100.00;101273.03;5049358;28;20100;-75
2023/08/08 02:00:37;;;;;;;7.38;3.83;;;;;;;13.13;100.00;101280.03;5050832;28;20484;-75
2023/08/08 02:03:03;;;;;;;6.40;4.15;;;;;;;13.16;100.00;101266.47;5039290;28;20029;-74
2023/08/08 02:05:29;;;;;;;9.57;3.53;;;;;;;13.10;100.00;101261.47;5029948;28;20025;-74
2023/08/08 02:07:54;;;;;;;6.18;3.70;;;;;;;13.08;100.00;101261.56;5050658;28;20399;-74
2023/08/08 02:10:20;;;;;;;5.88;3.75;;;;;;;13.08;100.00;101266.91;5051951;28;20029;-74
2023/08/08 02:12:45;;;;;;;7.10;3.92;;;;;;;13.05;100.00;101256.41;5056135;28;20040;-73
2023/08/08 02:15:10;;;;;;;5.25;3.85;;;;;;;13.02;100.00;101248.53;5041800;28;20391;-73
2023/08/08 02:17:38;;;;;;;5.72;3.95;;;;;;;12.96;100.00;101256.91;5051320;28;20096;-75
2023/08/08 02:20:05;;;;;;;10.27;4.35;;;;;;;12.84;100.00;101263.75;5034720;28;20033;-75
2023/08/08 02:22:30;;;;;;;6.50;4.13;;;;;;;12.75;100.00;101255.34;5049412;28;20033;-74
2023/08/08 02:24:56;;;;;;;7.68;4.10;;;;;;;12.70;100.00;101255.59;5039172;28;20376;-75
2023/08/08 02:27:21;;;;;;;12.45;5.03;;;;;;;12.64;100.00;101253.28;5046881;28;20082;-74
2023/08/08 02:29:47;;;;;;;7.25;4.25;;;;;;;12.56;100.00;101247.47;5057512;28;20058;-75
2023/08/08 02:32:13;;;;;;;26.48;15.23;;;;;;;12.51;100.00;101245.06;5055877;28;20029;-74
2023/08/08 02:34:38;;;;;;;7.75;4.55;;;;;;;12.51;100.00;101250.38;5049819;28;20016;-75
2023/08/08 02:37:04;;;;;;;7.43;4.88;;;;;;;12.48;100.00;101244.34;5053021;28;20111;-75
2023/08/08 02:39:29;;;;;;;8.60;4.55;;;;;;;12.45;100.00;101240.88;5048152;28;20482;-75
2023/08/08 02:41:55;;;;;;;7.55;4.88;;;;;;;12.47;100.00;101240.81;5056597;28;20059;-74
2023/08/08 02:44:22;;;;;;;8.88;4.80;;;;;;;12.46;100.00;101226.59;5040319;28;20062;-75
2023/08/08 02:46:47;;;;;;;8.93;4.63;;;;;;;12.52;100.00;101221.88;5041935;28;20033;-75
2023/08/08 02:49:13;;;;;;;8.57;5.00;;;;;;;12.60;100.00;101235.69;5035167;28;20071;-75
2023/08/08 02:51:38;;;;;;;7.05;4.88;;;;;;;12.62;100.00;101217.75;5043739;28;20022;-75
2023/08/08 02:54:03;;;;;;;7.97;4.78;;;;;;;12.67;100.00;101218.41;5045850;28;20117;-75
2023/08/08 02:56:31;;;;;;;11.25;5.50;;;;;;;12.67;100.00;101219.25;5039115;28;20491;-75
2023/08/08 02:58:58;;;;;;;9.02;4.70;;;;;;;12.69;100.00;101216.50;5049130;28;20039;-75
2023/08/08 03:01:23;;;;;;;8.25;4.68;;;;;;;12.72;100.00;101229.69;5033232;28;20037;-75
2023/08/08 03:03:48;;;;;;;11.60;5.50;;;;;;;12.72;100.00;101229.69;5053335;28;20103;-75
2023/08/08 03:06:14;;;;;;;11.55;5.25;;;;;;;12.71;100.00;101225.31;5040561;28;20028;-75
2023/08/08 03:08:39;;;;;;;12.60;5.93;;;;;;;12.74;100.00;101209.09;5048472;28;20446;-75
2023/08/08 03:11:05;;;;;;;11.63;5.75;;;;;;;12.71;100.00;101210.13;5045834;28;20509;-76
2023/08/08 03:13:30;;;;;;;11.75;5.50;;;;;;;12.74;100.00;101218.91;5044508;28;20036;-75
2023/08/08 03:15:56;;;;;;;10.88;5.25;;;;;;;12.69;100.00;101230.72;5033521;28;20044;-75
2023/08/08 03:18:22;;;;;;;11.50;5.32;;;;;;;12.71;100.00;101226.16;5041220;28;20056;-76
2023/08/08 03:20:48;;;;;;;7.00;5.20;;;;;;;12.66;100.00;101222.84;5064974;28;20474;-76
2023/08/08 03:23:13;;;;;;;13.43;5.80;;;;;;;12.70;100.00;101220.88;5027467;28;20036;-75
2023/08/08 03:25:39;;;;;;;13.55;6.40;;;;;;;12.71;100.00;101219.97;5043139;28;20366;-75
2023/08/08 03:28:04;;;;;;;10.93;6.10;;;;;;;12.72;100.00;101216.34;5052885;28;20039;-75
2023/08/08 03:30:30;;;;;;;10.80;5.35;;;;;;;12.75;100.00;101215.28;5033375;28;20033;-74
2023/08/08 03:32:55;;;;;;;10.60;5.50;;;;;;;12.72;100.00;101221.69;5052216;28;20024;-75
2023/08/08 03:35:20;;;;;;;12.73;6.32;;;;;;;12.72;100.00;101208.31;5040033;28;20236;-75
2023/08/08 03:37:46;;;;;;;12.60;5.80;;;;;;;12.74;100.00;101214.44;5040396;28;20025;-75
2023/08/08 03:40:13;;;;;;;8.38;5.15;;;;;;;12.76;100.00;101211.69;5041512;28;20380;-75
2023/08/08 03:42:39;;;;;;;8.40;5.85;;;;;;;12.72;100.00;101211.00;5046315;28;20493;-75
2023/08/08 03:45:05;;;;;;;13.07;6.00;;;;;;;12.68;100.00;101206.75;5043636;28;20115;-75
2023/08/08 03:47:30;;;;;;;9.88;5.70;;;;;;;12.67;100.00;101216.59;5049438;28;20062;-75
2023/08/08 03:49:57;;;;;;;10.55;6.18;;;;;;;12.67;100.00;101208.56;5047866;28;20042;-75
2023/08/08 03:52:22;;;;;;;12.00;6.32;;;;;;;12.63;100.00;101214.16;5043747;28;20493;-75
2023/08/08 03:54:48;;;;;;;13.57;6.70;;;;;;;12.54;100.00;101212.84;5034692;28;20026;-75
2023/08/08 03:57:13;;;;;;;9.25;5.97;;;;;;;12.53;100.00;101224.44;5042548;28;20033;-75
2023/08/08 03:59:39;;;;;;;12.57;6.30;;;;;;;12.45;100.00;101211.50;5051288;28;20017;-75
2023/08/08 04:02:04;;;;;;;9.30;6.00;;;;;;;12.35;100.00;101204.09;5040577;28;20108;-75
2023/08/08 04:04:30;;;;;;;12.02;6.15;;;;;;;12.27;100.00;101201.81;5026781;28;20079;-75
2023/08/08 04:06:56;;;;;;;11.52;6.55;;;;;;;12.19;100.00;101202.19;5048181;28;20052;-75
2023/08/08 04:09:21;;;;;;;14.15;6.85;;;;;;;12.19;100.00;101207.53;5053168;28;20483;-75
2023/08/08 04:11:46;;;;;;;13.82;6.88;;;;;;;12.13;100.00;101210.53;5037919;28;20029;-75
2023/08/08 04:14:12;;;;;;;12.40;7.03;;;;;;;12.14;100.00;101200.72;5038241;28;20023;-75
2023/08/08 04:16:39;;;;;;;15.32;6.95;;;;;;;12.08;100.00;101209.03;5032048;28;20025;-75
2023/08/08 04:19:04;;;;;;;13.43;6.80;;;;;;;12.01;100.00;101203.16;5047008;28;20459;-75
2023/08/08 04:21:32;;;;;;;25.10;7.07;;;;;;;12.05;100.00;101203.88;5039462;28;20116;-75
2023/08/08 04:23:58;;;;;;;18.20;7.85;;;;;;;12.02;100.00;101199.53;5031860;28;20173;-75
2023/08/08 04:26:23;;;;;;;12.25;6.90;;;;;;;11.98;100.00;101205.97;5023131;28;20029;-75
2023/08/08 04:28:49;;;;;;;14.50;6.60;;;;;;;11.96;100.00;101195.41;5032695;28;20372;-75
2023/08/08 04:31:14;;;;;;;15.77;6.97;;;;;;;11.92;100.00;101204.50;5030500;28;20389;-75
2023/08/08 04:33:40;;;;;;;12.57;7.80;;;;;;;11.91;100.00;101201.88;5044587;28;20034;-75
2023/08/08 04:36:05;;;;;;;12.07;7.30;;;;;;;11.87;100.00;101198.53;5047962;28;20036;-75
2023/08/08 04:38:30;;;;;;;13.82;7.70;;;;;;;11.88;100.00;101204.72;5041268;28;20539;-75
2023/08/08 04:40:56;;;;;;;13.82;8.13;;;;;;;11.90;100.00;101201.03;5046088;28;20134;-76
2023/08/08 04:43:21;;;;;;;14.98;7.85;;;;;;;11.87;100.00;101213.66;5045695;28;20159;-76
2023/08/08 04:45:47;;;;;;;14.07;7.80;;;;;;;11.87;100.00;101211.88;5048984;28;20348;-76
2023/08/08 04:48:12;;;;;;;15.35;7.20;;;;;;;11.86;100.00;101204.78;5049467;28;20427;-76
2023/08/08 04:50:37;;;;;;;11.50;7.38;;;;;;;11.85;100.00;101205.72;5063041;28;20045;-75
2023/08/08 04:53:03;;;;;;;13.98;7.65;;;;;;;11.88;100.00;101213.59;5054578;28;20031;-75
2023/08/08 04:55:28;;;;;;;11.70;7.32;;;;;;;11.88;100.00;101207.41;5050690;28;20143;-75
2023/08/08 04:57:54;;;;;;;15.63;7.95;;;;;;;11.88;100.00;101202.91;5052889;28;20077;-75
2023/08/08 05:00:19;;;;;;;18.30;8.57;;;;;;;11.89;100.00;101203.78;5053925;28;20290;-77
2023/08/08 05:02:45;;;;;;;15.18;8.00;;;;;;;11.89;100.00;101211.78;5049432;28;20132;-77
2023/08/08 05:05:10;;;;;;;16.17;8.43;;;;;;;11.89;100.00;101201.97;5050832;28;20050;-76
2023/08/08 05:07:37;;;;;;;13.48;7.45;;;;;;;11.94;100.00;101207.06;5052257;28;20036;-75
2023/08/08 05:10:03;;;;;;;11.07;7.45;;;;;;;11.90;100.00;101201.03;5049389;28;20052;-77
2023/08/08 05:12:28;;;;;;;14.93;7.97;;;;;;;11.98;100.00;101199.78;5051293;28;20159;-76
2023/08/08 05:14:54;;;;;;;13.63;7.60;;;;;;;11.99;100.00;101209.50;5046599;28;20116;-76
2023/08/08 05:17:19;;;;;;;15.13;8.15;;;;;;;11.98;100.00;101211.31;5054263;28;20282;-76
2023/08/08 05:19:44;;;;;;;14.57;8.10;;;;;;;11.95;100.00;101207.00;5048198;28;20021;-77
2023/08/08 05:22:10;;;;;;;16.48;8.35;;;;;;;12.03;100.00;101219.94;5045857;28;20033;-76
2023/08/08 05:24:35;;;;;;;15.18;8.07;;;;;;;12.02;100.00;101210.22;5041345;28;20013;-75
2023/08/08 05:27:01;;;;;;;15.82;7.95;;;;;;;12.06;100.00;101219.78;5056255;28;20110;-75
2023/08/08 05:29:26;;;;;;;15.38;7.93;;;;;;;12.09;100.00;101216.97;5040914;28;20032;-75
2023/08/08 05:31:52;;;;;;;15.68;8.05;;;;;;;12.14;100.00;101203.38;5035543;28;20051;-76
2023/08/08 05:34:17;;;;;;;14.02;8.00;;;;;;;12.24;100.00;101209.97;5034138;28;20177;-76
2023/08/08 05:36:42;;;;;;;14.75;8.05;;;;;;;12.34;100.00;101199.69;5037755;28;20029;-76
2023/08/08 05:39:09;;;;;;;13.88;7.07;;;;;;;12.45;100.00;101214.19;5044437;28;20059;-75
2023/08/08 05:41:35;;;;;;;13.88;7.85;;;;;;;12.57;100.00;101206.47;5031835;28;20021;-76
2023/08/08 05:44:03;;;;;;;15.98;8.23;;;;;;;12.68;100.00;101204.97;5035052;28;20522;-76
2023/08/08 05:46:29;;;;;;;12.02;7.03;;;;;;;12.81;100.00;101204.28;5039844;28;20029;-76
2023/08/08 05:48:54;;;;;;;13.48;7.20;;;;;;;12.97;100.00;101215.88;5037487;28;20080;-76
2023/08/08 05:51:19;;;;;;;14.63;7.15;;;;;;;13.07;100.00;101216.22;5044064;28;20142;-77
2023/08/08 05:53:44;;;;;;;16.50;7.28;;;;;;;13.17;100.00;101212.09;5052961;28;20059;-76
2023/08/08 05:56:10;;;;;;;15.52;7.22;;;;;;;13.28;100.00;101222.22;5054593;28;20179;-76
2023/08/08 05:58:37;;;;;;;11.60;6.95;;;;;;;13.37;100.00;101219.00;5052967;28;20395;-76
2023/08/08 06:01:05;;;;;;;15.75;7.28;;;;;;;13.55;100.00;101225.16;5026901;28;20031;-76
2023/08/08 06:03:31;;;;;;;13.57;6.85;;;;;;;13.68;100.00;101213.66;5034865;28;20361;-76
2023/08/08 06:05:57;;;;;;;13.23;6.70;;;;;;;13.80;100.00;101221.91;5038572;28;20021;-76
2023/08/08 06:08:22;;;;;;;11.82;6.93;;;;;;;13.90;100.00;101223.94;5048940;28;20140;-77
2023/08/08 06:10:48;;;;;;;14.55;6.63;;;;;;;14.00;100.00;101218.06;5032494;28;20100;-76
2023/08/08 06:13:13;;;;;;;11.73;6.50;;;;;;;14.02;100.00;101226.88;5040658;28;20432;-76
2023/08/08 06:15:38;;;;;;;14.23;6.30;;;;;;;14.13;100.00;101213.72;5038816;28;20070;-76
2023/08/08 06:18:05;;;;;;;12.52;5.88;;;;;;;14.25;100.00;101223.66;5051141;28;20504;-76
2023/08/08 06:20:30;;;;;;;10.73;5.53;;;;;;;14.26;100.00;101236.13;5044311;28;20376;-74
2023/08/08 06:22:56;;;;;;;10.23;6.10;;;;;;;14.20;100.00;101228.44;5051369;28;20479;-74
2023/08/08 06:25:21;;;;;;;14.68;6.68;;;;;;;14.27;100.00;101216.41;5057087;28;20440;-75
2023/08/08 06:27:46;;;;;;;12.60;6.63;;;;;;;14.41;100.00;101219.09;5050339;28;20476;-75
2023/08/08 06:30:12;;;;;;;13.80;6.03;;;;;;;14.44;100.00;101224.28;5042684;28;20495;-75
2023/08/08 06:32:37;;;;;;;12.77;6.50;;;;;;;14.63;100.00;101228.53;5036580;28;20276;-75
2023/08/08 06:35:03;;;;;;;13.85;6.78;;;;;;;14.84;100.00;101231.69;5041364;28;20513;-76
2023/08/08 06:37:28;;;;;;;9.20;5.65;;;;;;;14.91;100.00;101227.69;5045034;28;20545;-76
2023/08/08 06:39:54;;;;;;;10.43;5.00;;;;;;;15.01;100.00;101223.47;5057030;28;20399;-75
2023/08/08 06:42:19;;;;;;;10.90;5.47;;;;;;;15.23;100.00;101220.28;5052991;28;20565;-77
2023/08/08 06:44:44;;;;;;;12.57;5.75;;;;;;;15.43;100.00;101222.53;5047396;28;20399;-77
2023/08/08 06:47:11;;;;;;;13.82;5.95;;;;;;;15.52;100.00;101229.13;5051920;28;20033;-76
2023/08/08 06:49:37;;;;;;;11.35;5.95;;;;;;;15.62;100.00;101237.41;5042377;28;20052;-75
2023/08/08 06:52:02;;;;;;;10.60;5.85;;;;;;;15.68;100.00;101220.97;5032235;28;20040;-74
2023/08/08 06:54:28;;;;;;;8.65;4.85;;;;;;;15.92;100.00;101224.66;5051773;28;20075;-75
2023/08/08 06:56:56;;;;;;;12.82;5.38;;;;;;;16.01;100.00;101230.38;5046792;28;20113;-77
2023/08/08 06:59:22;;;;;;;9.50;5.00;;;;;;;16.21;100.00;101227.22;5033477;28;20037;-78
2023/08/08 07:01:48;;;;;;;9.35;5.30;;;;;;;16.38;100.00;101229.59;5039700;28;20031;-76
2023/08/08 07:04:14;;;;;;;10.98;5.65;;;;;;;16.57;99.74;101236.41;5032569;28;20025;-77
2023/08/08 07:06:41;;;;;;;8.68;4.78;;;;;;;16.65;96.64;101217.91;5054071;28;20448;-76
2023/08/08 07:09:10;;;;;;;10.85;5.43;;;;;;;16.91;97.01;101224.16;5058432;28;20032;-75
2023/08/08 07:11:36;;;;;;;8.45;4.80;;;;;;;16.83;96.41;101227.38;5040819;28;20407;-76
2023/08/08 07:14:01;;;;;;;9.18;4.82;;;;;;;16.62;96.92;101227.03;5040753;28;20037;-74
2023/08/08 07:16:26;;;;;;;11.57;5.18;;;;;;;16.87;97.30;101230.72;5042093;28;20483;-75
2023/08/08 07:18:52;;;;;;;10.88;4.60;;;;;;;17.00;93.90;101219.94;5052871;28;20512;-75
2023/08/08 07:21:17;;;;;;;8.40;4.88;;;;;;;17.04;93.45;101226.81;5042323;28;20036;-76
2023/08/08 07:23:42;;;;;;;7.57;4.70;;;;;;;17.00;94.51;101225.31;5039910;28;20036;-75
2023/08/08 07:26:08;;;;;;;8.45;4.70;;;;;;;16.98;92.82;101227.28;5045736;28;20029;-75
2023/08/08 07:28:33;;;;;;;11.82;4.55;;;;;;;17.09;93.67;101217.44;5050921;28;20033;-75
2023/08/08 07:30:58;;;;;;;8.32;5.03;;;;;;;17.56;92.16;101223.88;5044979;28;20417;-76
2023/08/08 07:33:23;;;;;;;11.70;4.95;;;;;;;17.57;89.22;101220.22;5041940;28;20040;-76
2023/08/08 07:35:49;;;;;;;7.93;4.43;;;;;;;17.60;90.15;101224.53;5048476;28;20534;-77
2023/08/08 07:38:15;;;;;;;8.82;4.28;;;;;;;17.59;90.11;101223.63;5044346;28;20035;-75
2023/08/08 07:40:41;;;;;;;9.52;4.50;;;;;;;17.67;90.74;101225.75;5049635;28;20032;-75
2023/08/08 07:43:06;;;;;;;8.82;4.25;;;;;;;17.80;91.02;101221.19;5043283;28;20446;-75
2023/08/08 07:45:32;;;;;;;7.78;3.83;;;;;;;17.84;85.08;101220.00;5029214;28;20033;-74
2023/08/08 07:47:57;;;;;;;8.13;3.85;;;;;;;17.97;85.47;101232.53;5042485;28;20111;-75
2023/08/08 07:50:23;;;;;;;7.03;3.70;;;;;;;18.00;86.60;101232.31;5050086;28;20490;-74
2023/08/08 07:52:48;;;;;;;7.35;4.07;;;;;;;18.05;86.37;101228.28;5051628;28;20035;-75
2023/08/08 07:55:14;;;;;;;7.32;3.83;;;;;;;18.16;85.86;101217.56;5040067;28;20074;-75
2023/08/08 07:57:39;;;;;;;7.78;3.60;;;;;;;18.22;86.02;101216.22;5038375;28;20689;-75
2023/08/08 08:00:11;;;;;;;8.68;4.00;;;;;;;18.38;85.31;101222.13;5057747;28;20036;-76
2023/08/08 08:02:37;;;;;;;8.65;4.05;;;;;;;18.51;83.08;101216.66;5047502;28;20017;-76
2023/08/08 08:05:05;;;;;;;7.85;3.63;;;;;;;18.59;83.01;101218.75;5046295;28;20037;-75
2023/08/08 08:07:35;;;;;;;7.47;3.30;;;;;;;18.48;81.25;101225.00;5046150;28;20024;-75
2023/08/08 08:10:06;;;;;;;6.07;3.17;;;;;;;18.33;80.91;101228.88;5057093;28;20047;-75
2023/08/08 08:12:32;;;;;;;9.40;3.40;;;;;;;18.07;83.74;101230.88;5041028;28;20337;-75
2023/08/08 08:14:58;;;;;;;5.18;3.03;;;;;;;17.81;83.39;101232.88;5041993;28;20037;-76
2023/08/08 08:17:23;;;;;;;8.50;3.60;;;;;;;17.56;84.30;101231.97;5041761;28;20347;-75
2023/08/08 08:19:50;;;;;;;6.10;3.10;;;;;;;17.29;86.00;101234.81;5045834;28;20495;-74
2023/08/08 08:22:15;;;;;;;8.00;3.60;;;;;;;17.15;86.04;101235.84;5037631;28;20035;-74
2023/08/08 08:24:41;;;;;;;7.78;3.22;;;;;;;17.03;86.62;101227.78;5037417;28;20029;-74
2023/08/08 08:27:06;;;;;;;6.00;3.58;;;;;;;16.98;87.44;101227.28;5039871;28;20057;-74
2023/08/08 08:29:32;;;;;;;9.63;3.75;;;;;;;17.13;87.75;101232.38;5050900;28;20037;-73
2023/08/08 08:31:58;;;;;;;8.27;3.65;;;;;;;17.78;84.44;101227.69;5042657;28;20106;-75
2023/08/08 08:34:23;;;;;;;7.63;3.60;;;;;;;19.07;80.41;101222.13;5037743;28;20475;-75
2023/08/08 08:36:49;;;;;;;7.22;2.92;;;;;;;20.19;74.74;101229.06;5043702;28;20040;-75
2023/08/08 08:39:14;;;;;;;7.85;3.72;;;;;;;20.92;71.52;101221.00;5031009;28;20075;-74
2023/08/08 08:41:39;;;;;;;7.50;3.00;;;;;;;21.08;70.51;101226.75;5044294;28;20032;-74
2023/08/08 08:44:08;;;;;;;5.30;2.95;;;;;;;20.19;70.13;101228.19;5041749;28;20032;-75
2023/08/08 08:46:35;;;;;;;6.38;2.97;;;;;;;19.45;73.03;101226.22;5037684;28;20117;-74
2023/08/08 08:49:05;;;;;;;7.85;3.38;;;;;;;18.79;75.35;101219.91;5045391;28;20439;-74
2023/08/08 08:51:34;;;;;;;6.60;3.53;;;;;;;18.33;77.49;101229.72;5036970;28;20103;-74
2023/08/08 08:54:03;;;;;;;7.82;3.47;;;;;;;18.00;79.71;101237.69;5049635;28;20043;-74
2023/08/08 08:56:29;;;;;;;5.53;3.25;;;;;;;17.72;80.90;101234.34;5044042;28;20025;-74
2023/08/08 08:58:55;;;;;;;6.57;3.67;;;;;;;17.58;80.52;101247.97;5033400;28;20021;-74
2023/08/08 09:01:22;;;;;;;6.45;3.33;;;;;;;17.75;80.09;101234.16;5037560;28;20051;-73
2023/08/08 09:03:48;;;;;;;6.10;3.13;;;;;;;18.48;79.09;101232.22;5039056;28;20064;-73
2023/08/08 09:06:15;;;;;;;4.75;2.80;;;;;;;18.68;77.75;101234.19;5043000;28;20035;-75
2023/08/08 09:08:41;;;;;;;8.45;3.60;;;;;;;18.56;77.02;101240.53;5032641;28;20052;-75
2023/08/08 09:11:06;;;;;;;6.45;3.50;;;;;;;18.42;77.85;101245.19;5027735;28;20483;-74
2023/08/08 09:13:39;;;;;;;5.95;3.55;;;;;;;18.12;77.47;101244.84;5029619;28;20067;-74
2023/08/08 09:16:06;;;;;;;8.05;3.60;;;;;;;17.98;78.16;101239.66;5034127;28;20092;-74
2023/08/08 09:18:32;;;;;;;7.80;3.35;;;;;;;17.95;79.49;101247.97;5040146;28;20349;-74
2023/08/08 09:20:58;;;;;;;7.03;3.25;;;;;;;17.88;80.23;101250.25;5047033;28;20064;-75
2023/08/08 09:23:23;;;;;;;6.13;3.30;;;;;;;17.71;79.65;101239.84;5044907;28;20471;-75
2023/08/08 09:25:49;;;;;;;4.90;3.03;;;;;;;17.45;81.27;101228.34;5037789;28;20040;-75
2023/08/08 09:28:15;;;;;;;6.65;3.20;;;;;;;17.35;81.91;101236.22;5036328;28;20548;-75
2023/08/08 09:30:44;;;;;;;5.93;3.38;;;;;;;17.22;81.85;101238.94;5051431;28;20028;-74
2023/08/08 09:33:11;;;;;;;7.15;3.55;;;;;;;17.11;83.14;101239.72;5054400;28;20074;-75
2023/08/08 09:35:40;;;;;;;7.07;3.50;;;;;;;17.25;85.12;101244.09;5058103;28;20511;-75
2023/08/08 09:38:05;;;;;;;7.55;3.78;;;;;;;17.28;84.28;101249.25;5045230;28;20021;-75
2023/08/08 09:40:34;;;;;;;9.00;4.13;;;;;;;17.31;83.35;101245.50;5049200;28;20619;-74
2023/08/08 09:42:59;;;;;;;7.47;3.80;;;;;;;17.55;84.07;101249.06;5043993;28;20178;-75
2023/08/08 09:45:24;;;;;;;8.10;3.67;;;;;;;18.13;82.49;101255.50;5045778;28;20075;-75
2023/08/08 09:47:52;;;;;;;7.28;3.97;;;;;;;18.48;79.06;101234.94;5047561;28;20555;-74
2023/08/08 09:50:18;;;;;;;8.65;4.18;;;;;;;18.69;77.54;101238.63;5056551;28;20070;-74
2023/08/08 09:52:45;;;;;;;8.25;3.85;;;;;;;19.07;76.23;101242.84;5045714;28;20029;-74
2023/08/08 09:55:11;;;;;;;7.50;3.65;;;;;;;19.16;73.02;101244.81;5053897;28;20033;-75
2023/08/08 09:57:39;;;;;;;5.30;3.55;;;;;;;19.49;72.02;101246.59;5044295;28;20033;-75
2023/08/08 10:00:10;;;;;;;4.50;2.92;;;;;;;19.85;69.70;101250.81;5051653;28;20032;-75
2023/08/08 10:02:35;;;;;;;7.45;3.00;;;;;;;20.41;66.81;101241.59;5046070;28;20063;-74
2023/08/08 10:05:04;;;;;;;4.70;2.80;;;;;;;20.54;66.29;101249.53;5042627;28;20115;-73
2023/08/08 10:07:30;;;;;;;6.25;3.00;;;;;;;20.57;66.10;101246.59;5046656;28;20052;-75
2023/08/08 10:09:57;;;;;;;5.38;3.00;;;;;;;20.33;65.92;101255.78;5042754;28;20487;-75
2023/08/08 10:12:25;;;;;;;5.95;3.05;;;;;;;20.52;66.97;101246.09;5045468;28;20040;-75
2023/08/08 10:14:51;;;;;;;5.10;3.05;;;;;;;20.82;65.78;101238.03;5035760;28;20464;-75
2023/08/08 10:17:18;;;;;;;6.28;3.20;;;;;;;20.55;64.61;101240.44;5043792;28;20032;-75
2023/08/08 10:19:57;;;;;;;10.40;7.53;;;;;;;20.34;67.21;101240.41;5052065;28;20471;-74
2023/08/08 10:22:24;;;;;;;10.25;6.63;;;;;;;20.05;68.81;101237.47;5038579;28;20786;-75
2023/08/08 10:24:54;;;;;;;7.70;3.80;;;;;;;20.62;68.04;101237.06;5039073;28;20075;-74
2023/08/08 10:27:33;;;;;;;6.25;2.88;;;;;;;21.14;66.72;101242.44;5040820;28;20021;-73
2023/08/08 10:30:10;;;;;;;6.53;3.47;;;;;;;21.12;65.34;101241.72;5036218;28;20526;-73
2023/08/08 10:32:43;;;;;;;3.90;2.38;;;;;;;21.70;61.99;101255.47;5063593;28;20086;-73
2023/08/08 10:35:09;;;;;;;;;;;;;;;22.70;62.21;101241.59;5042840;28;20032;-73
2023/08/08 10:37:35;;;;;;;6.97;2.80;;;;;;;22.51;57.22;101233.50;5041042;28;19920;-72
2023/08/08 10:40:09;;;;;;;5.63;3.08;;;;;;;21.80;58.68;101250.03;5050168;28;20037;-72
2023/08/08 10:42:45;;;;;;;6.80;2.90;;;;;;;22.08;61.41;101248.34;5038021;28;20104;-73
2023/08/08 10:45:15;;;;;;;4.95;2.30;;;;;;;22.18;58.36;101242.94;5044752;28;20029;-72
2023/08/08 10:47:42;;;;;;;4.05;2.40;;;;;;;21.52;59.49;101241.72;5049287;28;20036;-72
2023/08/08 10:50:13;;;;;;;4.75;2.75;;;;;;;20.62;60.66;101236.22;5052092;28;20059;-72
2023/08/08 10:52:51;;;;;;;6.45;2.75;;;;;;;19.99;63.48;101251.53;5049598;28;20021;-72
2023/08/08 10:55:23;;;;;;;14.35;3.63;;;;;;;19.12;66.69;101244.19;5038822;28;20300;-71
2023/08/08 10:57:58;;;;;;;11.93;3.35;;;;;;;18.56;69.11;101236.03;5036549;28;20040;-71
2023/08/08 11:00:26;;;;;;;5.95;2.75;;;;;;;18.21;70.78;101256.75;5041314;28;20417;-73
2023/08/08 11:02:53;;;;;;;4.57;2.80;;;;;;;17.95;71.91;101250.66;5037557;28;20545;-72
2023/08/08 11:05:19;;;;;;;6.32;2.88;;;;;;;17.73;73.90;101246.00;5053657;28;20506;-72
2023/08/08 11:07:45;;;;;;;5.93;2.55;;;;;;;17.75;74.37;101247.63;5049416;28;20036;-74
2023/08/08 11:10:10;;;;;;;5.32;2.70;;;;;;;19.07;70.44;101234.75;5042967;28;20052;-74
2023/08/08 11:12:36;;;;;;;6.10;2.80;;;;;;;20.21;64.50;101239.75;5040598;28;20423;-74